Time;durP1;ratioP1;P1;durP2;ratioP2;P2;SDS_P1;SDS_P2;PMS_P1;PMS_P2;Temp;Humidity;BMP_temperature;BMP_pressure;BME280_temperature;BME280_humidity;BME280_pressure;Samples;Min_cycle;Max_cycle;Signal;HPM_P1;HPM_P2
2023/04/10 00:00:01;;;;;;;31.90;14.70;;;;;;;;;;4930449;29;20102;-77
2023/04/10 00:02:30;;;;;;;30.02;14.38;;;;;;;;;;4915142;29;20143;-79
2023/04/10 00:04:58;;;;;;;31.15;14.82;;;;;;;;;;4918353;29;20095;-79
2023/04/10 00:07:28;;;;;;;36.13;14.90;;;;;;;;;;4918067;29;20044;-77
2023/04/10 00:09:57;;;;;;;32.90;15.10;;;;;;;;;;4917600;29;20083;-79
2023/04/10 00:12:26;;;;;;;30.17;14.35;;;;;;;;;;4918300;29;20055;-76
2023/04/10 00:14:53;;;;;;;34.78;16.42;;;;;;;;;;4918647;29;20073;-78
2023/04/10 00:17:19;;;;;;;32.63;15.65;;;;;;;;;;4910918;29;20044;-79
2023/04/10 00:19:46;;;;;;;36.85;16.20;;;;;;;;;;4918750;29;20059;-79
2023/04/10 00:22:12;;;;;;;37.75;16.05;;;;;;;;;;4920845;29;20063;-79
2023/04/10 00:24:39;;;;;;;33.63;16.13;;;;;;;;;;4928865;29;20036;-78
2023/04/10 00:27:05;;;;;;;33.72;15.23;;;;;;;;;;4936539;29;20051;-79
2023/04/10 00:29:32;;;;;;;34.78;15.90;;;;;;;;;;4936480;29;20063;-79
2023/04/10 00:32:00;;;;;;;32.85;14.80;;;;;;;;;;4937112;29;20044;-79
2023/04/10 00:34:27;;;;;;;37.55;15.95;;;;;;;;;;4936252;29;20123;-77
2023/04/10 00:36:53;;;;;;;35.00;16.92;;;;;;;;;;4936729;29;20071;-76
2023/04/10 00:39:19;;;;;;;37.78;17.67;;;;;;;;;;4920451;29;20040;-78
2023/04/10 00:41:46;;;;;;;37.78;17.83;;;;;;;;;;4936327;29;20044;-78
2023/04/10 00:44:13;;;;;;;40.47;17.40;;;;;;;;;;4936808;29;20051;-78
2023/04/10 00:46:42;;;;;;;35.13;16.90;;;;;;;;;;4920641;29;20076;-77
2023/04/10 00:49:10;;;;;;;35.63;17.25;;;;;;;;;;4936154;29;20085;-77
2023/04/10 00:51:40;;;;;;;35.42;16.98;;;;;;;;;;4936023;29;20146;-79
2023/04/10 00:54:09;;;;;;;40.85;17.63;;;;;;;;;;4937181;29;20088;-78
2023/04/10 00:56:35;;;;;;;37.45;18.08;;;;;;;;;;4938442;29;20048;-78
2023/04/10 00:59:02;;;;;;;33.55;16.60;;;;;;;;;;4938657;29;20044;-78
2023/04/10 01:01:32;;;;;;;35.80;17.10;;;;;;;;;;4937529;29;20075;-76
2023/04/10 01:04:03;;;;;;;36.85;17.73;;;;;;;;;;4936283;29;20099;-78
2023/04/10 01:06:36;;;;;;;37.55;16.98;;;;;;;;;;4936378;29;20475;-79
2023/04/10 01:09:03;;;;;;;36.53;17.15;;;;;;;;;;4935777;29;20036;-77
2023/04/10 01:11:39;;;;;;;38.83;17.88;;;;;;;;;;4934660;29;20473;-77
2023/04/10 01:14:15;;;;;;;35.05;17.38;;;;;;;;;;4936007;29;20044;-79
2023/04/10 01:16:48;;;;;;;38.90;17.45;;;;;;;;;;4932969;29;20413;-80
2023/04/10 01:19:34;;;;;;;35.70;17.90;;;;;;;;;;4934499;29;20035;-76
2023/04/10 01:22:01;;;;;;;35.90;16.65;;;;;;;;;;4924349;29;20446;-79
2023/04/10 01:24:30;;;;;;;33.35;16.50;;;;;;;;;;4930561;29;20059;-77
2023/04/10 01:27:15;;;;;;;37.25;16.98;;;;;;;;;;4916003;29;20052;-77
2023/04/10 01:29:46;;;;;;;32.47;15.75;;;;;;;;;;4914179;29;20542;-78
2023/04/10 01:32:15;;;;;;;34.00;16.02;;;;;;;;;;4916672;29;20127;-78
2023/04/10 01:34:46;;;;;;;38.70;17.45;;;;;;;;;;4914932;29;20056;-78
2023/04/10 01:37:19;;;;;;;34.10;16.45;;;;;;;;;;4899308;29;20504;-78
2023/04/10 01:39:47;;;;;;;37.13;16.67;;;;;;;;;;4916650;29;20454;-79
2023/04/10 01:42:16;;;;;;;34.47;17.00;;;;;;;;;;4899845;29;20040;-78
2023/04/10 01:44:45;;;;;;;29.55;15.20;;;;;;;;;;4924370;29;20050;-78
2023/04/10 01:47:13;;;;;;;31.92;14.93;;;;;;;;;;4930629;29;20044;-76
2023/04/10 01:49:44;;;;;;;29.50;14.52;;;;;;;;;;4916172;29;20040;-77
2023/04/10 01:52:14;;;;;;;32.03;15.15;;;;;;;;;;4897415;29;20063;-78
2023/04/10 01:54:47;;;;;;;35.40;16.27;;;;;;;;;;4900428;29;20342;-79
2023/04/10 01:57:20;;;;;;;31.50;15.20;;;;;;;;;;4916246;29;20044;-78
2023/04/10 01:59:53;;;;;;;30.95;15.27;;;;;;;;;;4915416;29;20055;-78
2023/04/10 02:02:19;;;;;;;30.77;15.75;;;;;;;;;;4900562;29;20168;-77
2023/04/10 02:04:50;;;;;;;33.75;15.85;;;;;;;;;;4914879;29;20350;-78
2023/04/10 02:07:37;;;;;;;34.05;15.90;;;;;;;;;;4913373;29;20505;-77
2023/04/10 02:10:11;;;;;;;31.67;15.52;;;;;;;;;;4888176;29;20421;-77
2023/04/10 02:12:41;;;;;;;30.97;16.50;;;;;;;;;;4913604;29;20044;-78
2023/04/10 02:15:09;;;;;;;33.72;15.75;;;;;;;;;;4896401;29;20044;-77
2023/04/10 02:17:37;;;;;;;29.83;14.63;;;;;;;;;;4897466;29;20048;-76
2023/04/10 02:20:06;;;;;;;35.03;15.63;;;;;;;;;;4913086;29;20052;-77
2023/04/10 02:22:33;;;;;;;34.03;15.70;;;;;;;;;;4919464;29;20232;-78
2023/04/10 02:24:59;;;;;;;36.65;15.60;;;;;;;;;;4919761;29;20062;-78
2023/04/10 02:27:29;;;;;;;31.55;15.25;;;;;;;;;;4900291;29;20044;-78
2023/04/10 02:29:57;;;;;;;38.53;16.40;;;;;;;;;;4916321;29;20092;-79
2023/04/10 02:32:25;;;;;;;35.40;15.95;;;;;;;;;;4900682;29;20040;-77
2023/04/10 02:34:51;;;;;;;32.53;15.45;;;;;;;;;;4916219;29;20054;-79
2023/04/10 02:37:18;;;;;;;36.92;16.02;;;;;;;;;;4900541;29;20068;-79
2023/04/10 02:39:44;;;;;;;34.30;16.17;;;;;;;;;;4900578;29;20060;-79
2023/04/10 02:42:13;;;;;;;35.55;16.27;;;;;;;;;;4914126;29;20040;-78
2023/04/10 02:44:40;;;;;;;33.95;16.98;;;;;;;;;;4914345;29;20040;-79
2023/04/10 02:47:07;;;;;;;38.15;17.95;;;;;;;;;;4898703;29;20040;-78
2023/04/10 02:49:38;;;;;;;36.15;16.85;;;;;;;;;;4913929;29;20397;-78
2023/04/10 02:52:11;;;;;;;35.10;16.85;;;;;;;;;;4896434;29;20068;-78
2023/04/10 02:54:39;;;;;;;35.53;16.40;;;;;;;;;;4914110;29;20118;-78
2023/04/10 02:57:06;;;;;;;36.05;16.20;;;;;;;;;;4913840;29;20447;-78
2023/04/10 02:59:33;;;;;;;34.65;17.13;;;;;;;;;;4897183;29;20055;-78
2023/04/10 03:02:01;;;;;;;39.47;17.98;;;;;;;;;;4913262;29;20470;-78
2023/04/10 03:04:31;;;;;;;35.80;17.00;;;;;;;;;;4911952;29;20044;-78
2023/04/10 03:06:58;;;;;;;34.95;16.17;;;;;;;;;;4897125;29;20501;-78
2023/04/10 03:09:25;;;;;;;38.45;17.13;;;;;;;;;;4914903;29;20052;-77
2023/04/10 03:11:53;;;;;;;33.83;16.35;;;;;;;;;;4912555;29;20071;-77
2023/04/10 03:14:19;;;;;;;35.83;17.38;;;;;;;;;;4896368;29;20147;-77
2023/04/10 03:16:46;;;;;;;36.35;16.48;;;;;;;;;;4910694;29;20536;-78
2023/04/10 03:19:13;;;;;;;36.10;17.33;;;;;;;;;;4895062;29;20159;-78
2023/04/10 03:21:40;;;;;;;36.78;17.45;;;;;;;;;;4895629;29;20044;-78
2023/04/10 03:24:08;;;;;;;37.42;18.33;;;;;;;;;;4929040;29;20063;-77
2023/04/10 03:26:34;;;;;;;37.88;18.20;;;;;;;;;;4915120;29;20079;-78
2023/04/10 03:29:01;;;;;;;41.50;18.38;;;;;;;;;;4932665;29;20524;-78
2023/04/10 03:31:28;;;;;;;35.38;17.25;;;;;;;;;;4932546;29;20055;-79
2023/04/10 03:33:57;;;;;;;42.95;18.88;;;;;;;;;;4931226;29;20112;-80
2023/04/10 03:36:24;;;;;;;46.53;19.30;;;;;;;;;;4933486;29;20054;-79
2023/04/10 03:38:52;;;;;;;37.30;17.38;;;;;;;;;;4930696;29;20051;-78
2023/04/10 03:41:18;;;;;;;44.72;18.92;;;;;;;;;;4931918;29;20567;-77
2023/04/10 03:43:45;;;;;;;41.80;18.77;;;;;;;;;;4918166;29;20059;-79
2023/04/10 03:46:12;;;;;;;38.08;17.52;;;;;;;;;;4917132;29;20044;-81
2023/04/10 03:48:41;;;;;;;38.00;17.92;;;;;;;;;;4916348;29;20044;-80
2023/04/10 03:51:09;;;;;;;44.35;19.08;;;;;;;;;;4932671;29;20063;-81
2023/04/10 03:53:35;;;;;;;41.95;18.63;;;;;;;;;;4930778;29;20047;-79
2023/04/10 03:56:07;;;;;;;41.08;19.75;;;;;;;;;;4931251;29;20467;-79
2023/04/10 03:58:34;;;;;;;36.90;17.73;;;;;;;;;;4931575;29;20040;-78
2023/04/10 04:01:01;;;;;;;44.15;18.98;;;;;;;;;;4914551;29;20060;-77
2023/04/10 04:03:34;;;;;;;46.38;20.02;;;;;;;;;;4932088;29;20055;-78
2023/04/10 04:06:26;;;;;;;45.05;20.10;;;;;;;;;;4938104;29;20173;-77
2023/04/10 04:09:27;;;;;;;43.17;19.02;;;;;;;;;;4887118;29;20076;-77
2023/04/10 04:12:14;;;;;;;45.75;19.80;;;;;;;;;;4919219;29;20147;-79
2023/04/10 04:14:44;;;;;;;39.67;19.13;;;;;;;;;;4934144;29;20048;-78
2023/04/10 04:17:24;;;;;;;41.25;19.08;;;;;;;;;;4934232;29;20044;-78
2023/04/10 04:20:07;;;;;;;47.05;20.38;;;;;;;;;;4940132;29;20135;-79
2023/04/10 04:22:47;;;;;;;43.92;19.70;;;;;;;;;;4926749;29;20142;-79
2023/04/10 04:25:39;;;;;;;42.78;19.30;;;;;;;;;;4910389;29;20048;-78
2023/04/10 04:28:21;;;;;;;38.28;18.70;;;;;;;;;;4914963;29;20121;-78
2023/04/10 04:31:10;;;;;;;41.33;18.30;;;;;;;;;;4886013;29;20055;-78
2023/04/10 04:33:47;;;;;;;43.22;18.60;;;;;;;;;;4932061;29;20055;-79
2023/04/10 04:36:32;;;;;;;40.33;19.35;;;;;;;;;;4933789;29;20054;-80
2023/04/10 04:39:21;;;;;;;40.63;18.02;;;;;;;;;;4932198;29;20083;-79
2023/04/10 04:42:10;;;;;;;38.85;17.98;;;;;;;;;;4896793;29;20067;-79
2023/04/10 04:45:07;;;;;;;37.53;17.25;;;;;;;;;;4895679;29;20165;-78
2023/04/10 04:47:52;;;;;;;39.03;17.23;;;;;;;;;;4927333;29;20104;-78
2023/04/10 04:50:26;;;;;;;37.63;17.10;;;;;;;;;;4931917;29;20052;-78
2023/04/10 04:53:21;;;;;;;38.15;16.35;;;;;;;;;;4871109;29;20077;-81
2023/04/10 04:56:05;;;;;;;36.30;17.10;;;;;;;;;;4918665;29;20040;-78
2023/04/10 04:58:43;;;;;;;36.40;17.58;;;;;;;;;;4905800;29;20104;-79
2023/04/10 05:01:27;;;;;;;37.33;17.15;;;;;;;;;;4903556;29;20116;-79
2023/04/10 05:04:12;;;;;;;43.97;19.33;;;;;;;;;;4898548;29;20048;-78
2023/04/10 05:07:07;;;;;;;42.65;18.90;;;;;;;;;;4882548;29;20058;-78
2023/04/10 05:09:36;;;;;;;46.05;20.60;;;;;;;;;;4899641;29;20067;-80
2023/04/10 05:12:12;;;;;;;45.67;21.05;;;;;;;;;;4899214;29;20045;-79
2023/04/10 05:14:45;;;;;;;51.75;24.10;;;;;;;;;;4899061;29;20064;-79
2023/04/10 05:17:30;;;;;;;;;;;;;;;;;;4898280;29;20045;-79
2023/04/10 05:20:17;;;;;;;50.15;22.33;;;;;;;;;;4898172;29;19938;-78
2023/04/10 05:23:03;;;;;;;;;;;;;;;;;;4920081;29;20089;-78
2023/04/10 05:25:38;;;;;;;45.38;21.00;;;;;;;;;;4915911;29;20015;-80
2023/04/10 05:28:35;;;;;;;47.88;20.55;;;;;;;;;;4901978;29;20056;-79
2023/04/10 05:31:20;;;;;;;45.70;20.58;;;;;;;;;;4914100;29;20139;-77
2023/04/10 05:33:59;;;;;;;47.50;21.02;;;;;;;;;;4902647;29;20076;-80
2023/04/10 05:36:35;;;;;;;45.85;20.50;;;;;;;;;;4927281;29;20159;-81
2023/04/10 05:39:28;;;;;;;40.30;20.30;;;;;;;;;;4902075;29;20044;-81
2023/04/10 05:42:10;;;;;;;43.97;20.40;;;;;;;;;;4910706;29;20048;-79
2023/04/10 05:44:57;;;;;;;40.85;20.25;;;;;;;;;;4895183;29;20048;-77
2023/04/10 05:47:50;;;;;;;44.47;20.30;;;;;;;;;;4906741;29;20064;-78
2023/04/10 05:50:24;;;;;;;39.50;18.73;;;;;;;;;;4903668;29;20124;-79
2023/04/10 05:53:19;;;;;;;44.42;20.65;;;;;;;;;;4927310;29;20129;-77
2023/04/10 05:56:01;;;;;;;43.13;19.90;;;;;;;;;;4915114;29;20053;-79
2023/04/10 05:58:41;;;;;;;45.50;20.85;;;;;;;;;;4920447;29;20613;-80
2023/04/10 06:01:30;;;;;;;45.35;20.13;;;;;;;;;;4909406;29;20724;-78
2023/04/10 06:04:01;;;;;;;50.08;20.98;;;;;;;;;;4908555;29;20077;-78
2023/04/10 06:06:29;;;;;;;42.63;19.90;;;;;;;;;;4926035;29;20128;-78
2023/04/10 06:08:55;;;;;;;42.63;21.33;;;;;;;;;;4922549;29;20059;-77
2023/04/10 06:11:23;;;;;;;41.80;20.00;;;;;;;;;;4919354;29;20052;-78
2023/04/10 06:13:53;;;;;;;38.20;19.45;;;;;;;;;;4891348;29;20127;-76
2023/04/10 06:16:26;;;;;;;39.45;20.15;;;;;;;;;;4910703;29;20099;-78
2023/04/10 06:18:53;;;;;;;40.55;19.55;;;;;;;;;;4952397;29;20047;-76
2023/04/10 06:21:22;;;;;;;48.30;20.52;;;;;;;;;;4943899;29;20044;-77
2023/04/10 06:23:49;;;;;;;38.55;19.38;;;;;;;;;;4921275;29;20075;-77
2023/04/10 06:26:17;;;;;;;40.55;20.13;;;;;;;;;;4918567;29;20084;-78
2023/04/10 06:28:43;;;;;;;37.05;19.45;;;;;;;;;;4909086;29;20063;-80
2023/04/10 06:31:13;;;;;;;43.05;19.58;;;;;;;;;;4905749;29;20052;-77
2023/04/10 06:33:40;;;;;;;36.50;19.15;;;;;;;;;;4899767;29;20048;-76
2023/04/10 06:36:08;;;;;;;38.60;19.60;;;;;;;;;;4915682;29;20155;-76
2023/04/10 06:38:41;;;;;;;37.35;18.58;;;;;;;;;;4896713;29;20107;-77
2023/04/10 06:41:08;;;;;;;35.47;17.92;;;;;;;;;;4898611;29;20051;-78
2023/04/10 06:43:35;;;;;;;35.95;18.10;;;;;;;;;;4921845;29;20448;-77
2023/04/10 06:46:03;;;;;;;38.22;18.45;;;;;;;;;;4917704;29;20070;-77
2023/04/10 06:48:30;;;;;;;33.28;17.63;;;;;;;;;;4917354;29;20473;-78
2023/04/10 06:50:59;;;;;;;37.42;18.27;;;;;;;;;;4915456;29;20035;-77
2023/04/10 06:53:26;;;;;;;40.13;19.90;;;;;;;;;;4907815;29;20047;-76
2023/04/10 06:55:53;;;;;;;36.47;19.05;;;;;;;;;;4912822;29;20059;-77
2023/04/10 06:58:19;;;;;;;48.97;22.20;;;;;;;;;;4909443;29;20044;-78
2023/04/10 07:00:46;;;;;;;38.03;20.40;;;;;;;;;;4908263;29;20075;-78
2023/04/10 07:03:13;;;;;;;41.28;19.80;;;;;;;;;;4911423;29;20476;-77
2023/04/10 07:05:39;;;;;;;34.38;18.77;;;;;;;;;;4907385;29;20131;-77
2023/04/10 07:08:07;;;;;;;34.80;18.13;;;;;;;;;;4910338;29;20047;-78
2023/04/10 07:10:34;;;;;;;33.92;18.48;;;;;;;;;;4908464;29;20051;-78
2023/04/10 07:13:01;;;;;;;33.10;17.88;;;;;;;;;;4891961;29;20055;-77
2023/04/10 07:15:28;;;;;;;33.17;17.75;;;;;;;;;;4908225;29;20064;-76
2023/04/10 07:17:55;;;;;;;34.92;18.75;;;;;;;;;;4906227;29;20575;-77
2023/04/10 07:20:21;;;;;;;32.17;18.38;;;;;;;;;;4890788;29;20485;-78
2023/04/10 07:22:48;;;;;;;34.78;17.67;;;;;;;;;;4907705;29;20071;-79
2023/04/10 07:25:15;;;;;;;31.88;17.73;;;;;;;;;;4886225;29;20334;-79
2023/04/10 07:27:41;;;;;;;31.13;17.55;;;;;;;;;;4891669;29;20052;-80
2023/04/10 07:30:08;;;;;;;29.65;17.27;;;;;;;;;;4905903;29;20151;-79
2023/04/10 07:32:38;;;;;;;32.05;17.48;;;;;;;;;;4907202;29;20199;-76
2023/04/10 07:35:06;;;;;;;32.80;16.30;;;;;;;;;;4902298;29;20549;-76
2023/04/10 07:37:32;;;;;;;28.90;16.00;;;;;;;;;;4886370;29;20272;-75
2023/04/10 07:40:01;;;;;;;27.58;15.90;;;;;;;;;;4907296;29;20055;-80
2023/04/10 07:42:28;;;;;;;28.27;15.93;;;;;;;;;;4911181;29;20048;-79
2023/04/10 07:44:55;;;;;;;30.10;15.93;;;;;;;;;;4908082;29;20473;-79
2023/04/10 07:47:21;;;;;;;31.00;16.63;;;;;;;;;;4891721;29;20052;-79
2023/04/10 07:49:48;;;;;;;28.80;15.98;;;;;;;;;;4911480;29;20508;-80
2023/04/10 07:52:15;;;;;;;29.52;16.60;;;;;;;;;;4899493;29;20047;-80
2023/04/10 07:54:42;;;;;;;29.02;16.17;;;;;;;;;;4911551;29;20080;-80
2023/04/10 07:57:09;;;;;;;28.10;16.13;;;;;;;;;;4907870;29;20055;-79
2023/04/10 07:59:36;;;;;;;30.27;16.35;;;;;;;;;;4905048;29;20139;-79
2023/04/10 08:02:02;;;;;;;29.33;16.25;;;;;;;;;;4897082;29;20058;-76
2023/04/10 08:04:29;;;;;;;28.50;15.40;;;;;;;;;;4911263;29;20123;-80
2023/04/10 08:06:56;;;;;;;28.55;16.35;;;;;;;;;;4892634;29;20564;-79
2023/04/10 08:09:23;;;;;;;27.20;15.18;;;;;;;;;;4893983;29;20123;-79
2023/04/10 08:11:49;;;;;;;28.13;16.23;;;;;;;;;;4908813;29;20099;-79
2023/04/10 08:14:16;;;;;;;26.50;15.05;;;;;;;;;;4890991;29;20055;-79
2023/04/10 08:16:44;;;;;;;25.98;14.95;;;;;;;;;;4907680;29;20469;-80
2023/04/10 08:19:10;;;;;;;26.65;14.85;;;;;;;;;;4891644;29;20048;-78
2023/04/10 08:21:37;;;;;;;26.10;15.10;;;;;;;;;;4907459;29;20044;-79
2023/04/10 08:24:04;;;;;;;26.63;14.82;;;;;;;;;;4917917;29;20417;-78
2023/04/10 08:26:30;;;;;;;24.95;14.32;;;;;;;;;;4914201;29;20094;-78
2023/04/10 08:28:58;;;;;;;22.67;13.45;;;;;;;;;;4910190;29;20052;-79
2023/04/10 08:31:26;;;;;;;23.02;12.63;;;;;;;;;;4915840;29;20047;-79
2023/04/10 08:33:53;;;;;;;25.95;13.35;;;;;;;;;;4904911;29;20199;-79
2023/04/10 08:36:20;;;;;;;21.05;11.68;;;;;;;;;;4909758;29;20496;-79
2023/04/10 08:38:47;;;;;;;19.45;11.88;;;;;;;;;;4894292;29;20416;-76
2023/04/10 08:41:14;;;;;;;18.60;10.13;;;;;;;;;;4905281;29;20155;-79
2023/04/10 08:43:42;;;;;;;17.80;10.75;;;;;;;;;;4916628;29;20052;-79
2023/04/10 08:46:08;;;;;;;20.35;11.60;;;;;;;;;;4945084;29;20059;-79
2023/04/10 08:48:43;;;;;;;18.88;11.40;;;;;;;;;;4925634;29;20386;-77
2023/04/10 08:51:12;;;;;;;18.55;11.02;;;;;;;;;;4928303;29;20051;-78
2023/04/10 08:53:47;;;;;;;21.23;11.50;;;;;;;;;;4906840;29;20138;-79
2023/04/10 08:56:15;;;;;;;21.63;11.15;;;;;;;;;;4921933;29;20055;-77
2023/04/10 08:58:41;;;;;;;19.60;11.13;;;;;;;;;;4922344;29;20060;-79
2023/04/10 09:01:10;;;;;;;20.67;11.68;;;;;;;;;;4923709;29;20036;-80
2023/04/10 09:03:37;;;;;;;18.35;11.05;;;;;;;;;;4899966;29;20568;-78
2023/04/10 09:06:04;;;;;;;17.73;10.48;;;;;;;;;;4920743;29;20048;-80
2023/04/10 09:08:31;;;;;;;17.33;9.32;;;;;;;;;;4906141;29;20052;-78
2023/04/10 09:10:58;;;;;;;15.93;9.15;;;;;;;;;;4902511;29;20099;-79
2023/04/10 09:13:34;;;;;;;14.60;8.50;;;;;;;;;;4904218;29;20071;-80
2023/04/10 09:16:00;;;;;;;14.65;8.10;;;;;;;;;;4915290;29;20075;-80
2023/04/10 09:18:47;;;;;;;12.82;7.53;;;;;;;;;;4910776;29;20055;-82
2023/04/10 09:21:15;;;;;;;14.00;8.52;;;;;;;;;;4911834;29;20059;-81
2023/04/10 09:23:43;;;;;;;18.02;9.85;;;;;;;;;;4913198;29;20056;-80
2023/04/10 09:26:21;;;;;;;18.10;9.98;;;;;;;;;;4911641;29;20059;-79
2023/04/10 09:29:04;;;;;;;19.60;11.02;;;;;;;;;;4892804;29;20067;-82
2023/04/10 09:31:30;;;;;;;17.88;9.20;;;;;;;;;;4892567;29;20091;-79
2023/04/10 09:34:10;;;;;;;16.30;9.18;;;;;;;;;;4911341;29;20677;-79
2023/04/10 09:36:37;;;;;;;76.68;9.80;;;;;;;;;;4914287;29;20048;-81
2023/04/10 09:39:04;;;;;;;17.90;8.88;;;;;;;;;;4908846;29;20126;-78
2023/04/10 09:41:31;;;;;;;17.98;9.27;;;;;;;;;;4918821;29;20090;-79
2023/04/10 09:44:06;;;;;;;16.60;8.45;;;;;;;;;;4920693;29;20135;-78
2023/04/10 09:46:33;;;;;;;14.50;8.77;;;;;;;;;;4917330;29;20139;-78
2023/04/10 09:49:03;;;;;;;16.25;9.18;;;;;;;;;;4917539;29;20296;-80
2023/04/10 09:51:30;;;;;;;16.38;9.20;;;;;;;;;;4917020;29;20051;-82
2023/04/10 09:53:57;;;;;;;16.67;9.82;;;;;;;;;;4916048;29;20070;-80
2023/04/10 09:56:26;;;;;;;17.23;9.55;;;;;;;;;;4897380;29;20056;-78
2023/04/10 09:58:55;;;;;;;14.75;9.70;;;;;;;;;;4907144;29;20040;-79
2023/04/10 10:01:21;;;;;;;15.73;9.80;;;;;;;;;;4891901;29;20311;-79
2023/04/10 10:03:48;;;;;;;14.88;9.00;;;;;;;;;;4891539;29;20124;-80
2023/04/10 10:06:15;;;;;;;14.57;8.95;;;;;;;;;;4912559;29;20066;-81
2023/04/10 10:08:41;;;;;;;15.85;9.68;;;;;;;;;;4890617;29;20220;-80
2023/04/10 10:11:11;;;;;;;15.52;9.95;;;;;;;;;;4909244;29;20348;-77
2023/04/10 10:13:44;;;;;;;12.95;8.07;;;;;;;;;;4910684;29;20058;-80
2023/04/10 10:16:14;;;;;;;12.65;8.63;;;;;;;;;;4896547;29;20560;-81
2023/04/10 10:18:44;;;;;;;13.60;9.05;;;;;;;;;;4908746;29;20075;-80
2023/04/10 10:21:12;;;;;;;12.88;8.65;;;;;;;;;;4907164;29;20151;-78
2023/04/10 10:23:39;;;;;;;12.88;8.02;;;;;;;;;;4917402;29;20048;-80
2023/04/10 10:26:06;;;;;;;13.23;7.78;;;;;;;;;;4905717;29;20044;-80
2023/04/10 10:28:34;;;;;;;11.50;8.13;;;;;;;;;;4902762;29;20047;-78
2023/04/10 10:31:02;;;;;;;15.93;8.55;;;;;;;;;;4908992;29;20397;-82
2023/04/10 10:33:28;;;;;;;12.10;7.68;;;;;;;;;;4915111;29;20339;-78
2023/04/10 10:35:58;;;;;;;11.50;6.72;;;;;;;;;;4910879;29;20417;-79
2023/04/10 10:38:26;;;;;;;8.38;5.78;;;;;;;;;;4896003;29;20048;-79
2023/04/10 10:40:52;;;;;;;10.23;5.93;;;;;;;;;;4907199;29;20472;-78
2023/04/10 10:43:36;;;;;;;10.30;6.68;;;;;;;;;;4917083;29;20044;-80
2023/04/10 10:46:08;;;;;;;9.35;6.70;;;;;;;;;;4911541;29;20563;-79
2023/04/10 10:48:34;;;;;;;11.13;6.22;;;;;;;;;;4912858;29;20551;-78
2023/04/10 10:51:02;;;;;;;8.00;5.85;;;;;;;;;;4900966;29;20047;-80
2023/04/10 10:53:39;;;;;;;8.98;5.88;;;;;;;;;;4914646;29;20086;-82
2023/04/10 10:56:17;;;;;;;8.40;5.65;;;;;;;;;;4914057;29;20048;-78
2023/04/10 10:58:56;;;;;;;6.97;4.55;;;;;;;;;;4913730;29;20091;-79
2023/04/10 11:01:22;;;;;;;8.20;5.95;;;;;;;;;;4910756;29;20115;-80
2023/04/10 11:03:49;;;;;;;11.52;6.10;;;;;;;;;;4914397;29;20056;-81
2023/04/10 11:06:18;;;;;;;6.55;4.10;;;;;;;;;;4905471;29;20239;-79
2023/04/10 11:08:48;;;;;;;6.72;4.70;;;;;;;;;;4905108;29;20052;-79
2023/04/10 11:11:22;;;;;;;7.53;4.70;;;;;;;;;;4921482;29;20067;-78
2023/04/10 11:13:49;;;;;;;6.80;4.45;;;;;;;;;;4910083;29;20060;-78
2023/04/10 11:16:17;;;;;;;6.80;4.15;;;;;;;;;;4906509;29;20044;-78
2023/04/10 11:18:43;;;;;;;6.13;4.25;;;;;;;;;;4897129;29;20094;-79
2023/04/10 11:21:10;;;;;;;6.70;4.75;;;;;;;;;;4905384;29;20047;-78
2023/04/10 11:23:37;;;;;;;7.25;4.95;;;;;;;;;;4902858;29;20160;-78
2023/04/10 11:26:05;;;;;;;9.40;4.90;;;;;;;;;;4912022;29;20044;-80
2023/04/10 11:28:32;;;;;;;7.05;4.72;;;;;;;;;;4922610;29;20290;-81
2023/04/10 11:31:18;;;;;;;7.68;4.75;;;;;;;;;;4904923;29;20106;-81
2023/04/10 11:33:50;;;;;;;7.03;4.82;;;;;;;;;;4913634;29;20052;-80
2023/04/10 11:36:17;;;;;;;5.68;4.40;;;;;;;;;;4929902;29;20055;-80
2023/04/10 11:38:57;;;;;;;5.93;4.30;;;;;;;;;;4920572;29;20058;-80
2023/04/10 11:41:30;;;;;;;7.13;4.90;;;;;;;;;;4924567;29;20052;-80
2023/04/10 11:43:58;;;;;;;5.60;4.68;;;;;;;;;;4912010;29;20075;-79
2023/04/10 11:46:25;;;;;;;6.80;4.75;;;;;;;;;;4914167;29;20181;-80
2023/04/10 11:48:52;;;;;;;7.30;4.68;;;;;;;;;;4909912;29;20074;-81
2023/04/10 11:51:20;;;;;;;6.00;4.20;;;;;;;;;;4910853;29;20124;-79
2023/04/10 11:53:47;;;;;;;5.53;3.97;;;;;;;;;;4912904;29;20580;-81
2023/04/10 11:56:14;;;;;;;4.35;3.15;;;;;;;;;;4908567;29;20044;-80
2023/04/10 11:58:41;;;;;;;4.35;3.17;;;;;;;;;;4906231;29;20188;-80
2023/04/10 12:01:13;;;;;;;4.57;3.00;;;;;;;;;;4906992;29;20616;-80
2023/04/10 12:03:42;;;;;;;4.65;3.60;;;;;;;;;;4909739;29;20055;-79
2023/04/10 12:06:10;;;;;;;4.63;3.30;;;;;;;;;;4911819;29;20048;-80
2023/04/10 12:08:41;;;;;;;3.97;3.35;;;;;;;;;;4906284;29;20406;-79
2023/04/10 12:11:08;;;;;;;4.40;3.35;;;;;;;;;;4915761;29;20055;-79
2023/04/10 12:13:35;;;;;;;4.68;3.65;;;;;;;;;;4917645;29;20047;-79
2023/04/10 12:16:03;;;;;;;4.80;3.00;;;;;;;;;;4910002;29;20048;-78
2023/04/10 12:18:30;;;;;;;4.40;2.80;;;;;;;;;;4899263;29;20080;-78
2023/04/10 12:20:58;;;;;;;5.35;3.42;;;;;;;;;;4897366;29;20800;-79
2023/04/10 12:23:25;;;;;;;4.28;3.13;;;;;;;;;;4910326;29;20390;-79
2023/04/10 12:25:53;;;;;;;3.95;3.08;;;;;;;;;;4912787;29;20117;-80
2023/04/10 12:28:20;;;;;;;3.58;3.20;;;;;;;;;;4896993;29;20408;-79
2023/04/10 12:30:53;;;;;;;4.18;3.30;;;;;;;;;;4916361;29;20085;-80
2023/04/10 12:33:21;;;;;;;3.30;2.72;;;;;;;;;;4906448;29;20048;-79
2023/04/10 12:35:48;;;;;;;7.97;3.40;;;;;;;;;;4908920;29;20062;-79
2023/04/10 12:38:15;;;;;;;4.55;3.67;;;;;;;;;;4900920;29;20135;-80
2023/04/10 12:40:57;;;;;;;6.43;3.63;;;;;;;;;;4917051;29;20052;-79
2023/04/10 12:43:31;;;;;;;3.78;3.38;;;;;;;;;;4911556;29;20063;-79
2023/04/10 12:45:58;;;;;;;4.85;3.53;;;;;;;;;;4906532;29;20147;-80
2023/04/10 12:48:24;;;;;;;4.53;3.60;;;;;;;;;;4907164;29;20051;-79
2023/04/10 12:50:51;;;;;;;4.95;3.50;;;;;;;;;;4909140;29;20075;-80
2023/04/10 12:53:18;;;;;;;4.43;3.28;;;;;;;;;;4915492;29;20044;-80
2023/04/10 12:55:58;;;;;;;5.78;4.03;;;;;;;;;;4912093;29;20055;-80
2023/04/10 12:58:29;;;;;;;5.18;4.03;;;;;;;;;;4922505;29;20052;-81
2023/04/10 13:00:57;;;;;;;5.15;4.30;;;;;;;;;;4916454;29;20413;-80
2023/04/10 13:03:24;;;;;;;8.32;4.15;;;;;;;;;;4914022;29;20107;-79
2023/04/10 13:05:52;;;;;;;7.38;4.00;;;;;;;;;;4911868;29;20555;-80
2023/04/10 13:08:19;;;;;;;10.10;4.30;;;;;;;;;;4910119;29;20048;-80
2023/04/10 13:10:46;;;;;;;6.55;4.40;;;;;;;;;;4913202;29;20051;-81
2023/04/10 13:13:13;;;;;;;8.80;4.47;;;;;;;;;;4911959;29;20564;-80
2023/04/10 13:15:39;;;;;;;4.75;3.90;;;;;;;;;;4894712;29;20044;-81
2023/04/10 13:18:06;;;;;;;6.53;4.55;;;;;;;;;;4914927;29;20044;-80
2023/04/10 13:20:34;;;;;;;6.07;4.15;;;;;;;;;;4920539;29;20079;-81
2023/04/10 13:23:04;;;;;;;5.50;3.83;;;;;;;;;;4907062;29;20063;-81
2023/04/10 13:25:32;;;;;;;5.40;3.83;;;;;;;;;;4916883;29;20063;-81
2023/04/10 13:28:00;;;;;;;5.32;4.22;;;;;;;;;;4917650;29;20088;-81
2023/04/10 13:30:27;;;;;;;7.50;4.28;;;;;;;;;;4912683;29;20056;-80
2023/04/10 13:32:54;;;;;;;6.30;4.60;;;;;;;;;;4912784;29;20051;-81
2023/04/10 13:35:21;;;;;;;5.78;4.25;;;;;;;;;;4915266;29;20056;-81
2023/04/10 13:37:51;;;;;;;8.50;4.38;;;;;;;;;;4912560;29;20143;-81
2023/04/10 13:40:21;;;;;;;6.18;3.72;;;;;;;;;;4898834;29;20075;-80
2023/04/10 13:42:47;;;;;;;5.53;4.07;;;;;;;;;;4916421;29;20048;-81
2023/04/10 13:45:14;;;;;;;6.57;4.03;;;;;;;;;;4915469;29;20080;-82
2023/04/10 13:47:41;;;;;;;5.90;4.00;;;;;;;;;;4921931;29;20386;-81
2023/04/10 13:50:07;;;;;;;5.20;4.07;;;;;;;;;;4913008;29;20063;-78
2023/04/10 13:52:34;;;;;;;5.30;4.00;;;;;;;;;;4931825;29;20052;-80
2023/04/10 13:55:01;;;;;;;6.40;4.35;;;;;;;;;;4929801;29;20047;-77
2023/04/10 13:57:27;;;;;;;5.47;3.97;;;;;;;;;;4919664;29;20051;-79
2023/04/10 13:59:54;;;;;;;5.38;4.03;;;;;;;;;;4914288;29;20135;-81
2023/04/10 14:02:20;;;;;;;7.00;3.95;;;;;;;;;;4913359;29;20421;-81
2023/04/10 14:04:47;;;;;;;5.80;4.05;;;;;;;;;;4906520;29;20047;-81
2023/04/10 14:07:14;;;;;;;5.63;3.75;;;;;;;;;;4924291;29;20048;-80
2023/04/10 14:09:40;;;;;;;5.05;3.90;;;;;;;;;;4920971;29;20055;-81
2023/04/10 14:12:07;;;;;;;6.78;4.03;;;;;;;;;;4919068;29;20049;-79
2023/04/10 14:14:33;;;;;;;5.65;3.60;;;;;;;;;;4902340;29;20438;-81
2023/04/10 14:17:00;;;;;;;4.97;3.95;;;;;;;;;;4922016;29;20063;-81
2023/04/10 14:19:26;;;;;;;4.78;4.15;;;;;;;;;;4919867;29;20067;-80
2023/04/10 14:21:53;;;;;;;5.78;4.20;;;;;;;;;;4923048;29;20082;-79
2023/04/10 14:24:20;;;;;;;4.57;3.90;;;;;;;;;;4928896;29;20050;-79
2023/04/10 14:26:47;;;;;;;4.65;3.85;;;;;;;;;;4912681;29;20399;-80
2023/04/10 14:29:13;;;;;;;5.43;4.03;;;;;;;;;;4914771;29;20262;-81
2023/04/10 14:31:43;;;;;;;5.35;3.90;;;;;;;;;;4912122;29;20072;-81
2023/04/10 14:34:22;;;;;;;5.50;3.92;;;;;;;;;;4907289;29;20557;-82
2023/04/10 14:36:54;;;;;;;5.32;3.97;;;;;;;;;;4913007;29;20068;-81
2023/04/10 14:39:23;;;;;;;5.38;4.10;;;;;;;;;;4910575;29;20095;-80
2023/04/10 14:41:50;;;;;;;5.40;4.18;;;;;;;;;;4911454;29;20055;-81
2023/04/10 14:44:17;;;;;;;5.57;3.90;;;;;;;;;;4895470;29;20068;-80